sensor_id;sensor_type;location;lat;lon;timestamp;pressure;altitude;pressure_sealevel;temperature;humidity
20636;BME280;10477;43.198;27.916;2022-07-29T00:00:17;109722.44;;;-143.34;100.00
20636;BME280;10477;43.198;27.916;2022-07-29T00:02:44;109852.09;;;-143.34;100.00
20636;BME280;10477;43.198;27.916;2022-07-29T00:05:12;109852.09;;;-143.34;100.00
20636;BME280;10477;43.198;27.916;2022-07-29T00:07:40;109981.76;;;-143.34;100.00
20636;BME280;10477;43.198;27.916;2022-07-29T00:10:08;109981.76;;;-143.34;100.00
20636;BME280;10477;43.198;27.916;2022-07-29T00:12:36;109981.76;;;-143.34;100.00
20636;BME280;10477;43.198;27.916;2022-07-29T00:15:04;109981.76;;;-143.34;100.00
20636;BME280;10477;43.198;27.916;2022-07-29T00:17:32;109852.09;;;-143.34;100.00
20636;BME280;10477;43.198;27.916;2022-07-29T00:20:00;109852.09;;;-143.34;100.00
20636;BME280;10477;43.198;27.916;2022-07-29T00:22:27;109852.09;;;-143.34;100.00
20636;BME280;10477;43.198;27.916;2022-07-29T00:24:55;109722.44;;;-143.34;100.00
20636;BME280;10477;43.198;27.916;2022-07-29T00:27:23;109722.44;;;-143.34;100.00
20636;BME280;10477;43.198;27.916;2022-07-29T00:29:50;109592.80;;;-143.34;100.00
20636;BME280;10477;43.198;27.916;2022-07-29T00:32:18;109592.80;;;-143.34;100.00
20636;BME280;10477;43.198;27.916;2022-07-29T00:34:46;109592.80;;;-143.34;100.00
20636;BME280;10477;43.198;27.916;2022-07-29T00:37:31;109463.14;;;-143.34;100.00
20636;BME280;10477;43.198;27.916;2022-07-29T00:39:59;109463.14;;;-143.34;100.00
20636;BME280;10477;43.198;27.916;2022-07-29T00:42:26;109463.14;;;-143.34;100.00
20636;BME280;10477;43.198;27.916;2022-07-29T00:44:54;109463.14;;;-143.34;100.00
20636;BME280;10477;43.198;27.916;2022-07-29T00:47:22;109333.50;;;-143.34;100.00
20636;BME280;10477;43.198;27.916;2022-07-29T00:49:49;109333.50;;;-143.34;100.00
20636;BME280;10477;43.198;27.916;2022-07-29T00:52:17;109333.50;;;-143.34;100.00
20636;BME280;10477;43.198;27.916;2022-07-29T00:54:45;109333.50;;;-143.34;100.00
20636;BME280;10477;43.198;27.916;2022-07-29T00:57:14;109203.88;;;-143.34;100.00
20636;BME280;10477;43.198;27.916;2022-07-29T00:59:42;109203.88;;;-143.34;100.00
20636;BME280;10477;43.198;27.916;2022-07-29T01:02:10;109203.88;;;-143.34;100.00
20636;BME280;10477;43.198;27.916;2022-07-29T01:04:38;109203.88;;;-143.34;100.00
20636;BME280;10477;43.198;27.916;2022-07-29T01:07:06;109074.24;;;-143.34;100.00
20636;BME280;10477;43.198;27.916;2022-07-29T01:09:35;108944.62;;;-143.34;100.00
20636;BME280;10477;43.198;27.916;2022-07-29T01:12:05;108944.62;;;-143.34;100.00
20636;BME280;10477;43.198;27.916;2022-07-29T01:14:33;108944.62;;;-143.34;100.00
20636;BME280;10477;43.198;27.916;2022-07-29T01:17:14;108814.99;;;-143.34;100.00
20636;BME280;10477;43.198;27.916;2022-07-29T01:22:42;108685.38;;;-143.34;100.00
20636;BME280;10477;43.198;27.916;2022-07-29T01:25:26;108685.38;;;-143.34;100.00
20636;BME280;10477;43.198;27.916;2022-07-29T01:30:26;108814.99;;;-143.34;100.00
20636;BME280;10477;43.198;27.916;2022-07-29T01:33:01;108944.62;;;-143.34;100.00
20636;BME280;10477;43.198;27.916;2022-07-29T01:35:33;109203.88;;;-143.34;100.00
20636;BME280;10477;43.198;27.916;2022-07-29T01:38:21;109333.50;;;-143.34;100.00
20636;BME280;10477;43.198;27.916;2022-07-29T01:40:50;109333.50;;;-143.34;100.00
20636;BME280;10477;43.198;27.916;2022-07-29T01:43:20;109592.80;;;-143.34;100.00
20636;BME280;10477;43.198;27.916;2022-07-29T01:45:55;109722.44;;;-143.34;100.00
20636;BME280;10477;43.198;27.916;2022-07-29T01:48:24;109722.44;;;-143.34;100.00
20636;BME280;10477;43.198;27.916;2022-07-29T01:53:47;109981.76;;;-143.34;100.00
20636;BME280;10477;43.198;27.916;2022-07-29T01:56:16;109981.76;;;-143.34;100.00
20636;BME280;10477;43.198;27.916;2022-07-29T01:58:46;110111.42;;;-143.34;100.00
20636;BME280;10477;43.198;27.916;2022-07-29T02:01:16;110111.42;;;-143.34;100.00
20636;BME280;10477;43.198;27.916;2022-07-29T02:03:46;109981.76;;;-143.34;100.00
20636;BME280;10477;43.198;27.916;2022-07-29T02:06:16;109852.09;;;-143.34;100.00
20636;BME280;10477;43.198;27.916;2022-07-29T02:08:46;109852.09;;;-143.34;100.00
20636;BME280;10477;43.198;27.916;2022-07-29T02:11:15;109852.09;;;-143.34;100.00
20636;BME280;10477;43.198;27.916;2022-07-29T02:13:44;109852.09;;;-143.34;100.00
20636;BME280;10477;43.198;27.916;2022-07-29T02:16:14;109852.09;;;-143.34;100.00
20636;BME280;10477;43.198;27.916;2022-07-29T02:18:43;109852.09;;;-143.34;100.00
20636;BME280;10477;43.198;27.916;2022-07-29T02:21:13;109981.76;;;-143.34;100.00
20636;BME280;10477;43.198;27.916;2022-07-29T02:23:45;109981.76;;;-143.34;100.00
20636;BME280;10477;43.198;27.916;2022-07-29T02:26:13;110111.42;;;-143.34;100.00
20636;BME280;10477;43.198;27.916;2022-07-29T02:28:42;110241.09;;;-143.34;100.00
20636;BME280;10477;43.198;27.916;2022-07-29T02:31:11;110241.09;;;-143.34;100.00
20636;BME280;10477;43.198;27.916;2022-07-29T02:33:40;110370.77;;;-143.34;100.00
20636;BME280;10477;43.198;27.916;2022-07-29T02:36:09;110500.45;;;-143.34;100.00
20636;BME280;10477;43.198;27.916;2022-07-29T02:38:38;110500.45;;;-143.34;100.00
20636;BME280;10477;43.198;27.916;2022-07-29T02:41:30;110500.45;;;-143.34;100.00
20636;BME280;10477;43.198;27.916;2022-07-29T02:44:05;110500.45;;;-143.34;100.00
20636;BME280;10477;43.198;27.916;2022-07-29T02:46:34;110500.45;;;-143.34;100.00
20636;BME280;10477;43.198;27.916;2022-07-29T02:51:55;110500.45;;;-143.34;100.00
20636;BME280;10477;43.198;27.916;2022-07-29T02:57:24;110500.45;;;-143.34;100.00
20636;BME280;10477;43.198;27.916;2022-07-29T02:59:52;110370.77;;;-143.34;100.00
20636;BME280;10477;43.198;27.916;2022-07-29T03:02:22;110370.77;;;-143.34;100.00
20636;BME280;10477;43.198;27.916;2022-07-29T03:04:50;110241.09;;;-143.34;100.00
20636;BME280;10477;43.198;27.916;2022-07-29T03:07:21;110241.09;;;-143.34;100.00
20636;BME280;10477;43.198;27.916;2022-07-29T03:09:50;110241.09;;;-143.34;100.00
20636;BME280;10477;43.198;27.916;2022-07-29T03:12:20;110111.42;;;-143.34;100.00
20636;BME280;10477;43.198;27.916;2022-07-29T03:14:48;109981.76;;;-143.34;100.00
20636;BME280;10477;43.198;27.916;2022-07-29T03:17:17;109852.09;;;-143.34;100.00
20636;BME280;10477;43.198;27.916;2022-07-29T03:19:44;109852.09;;;-143.34;100.00
20636;BME280;10477;43.198;27.916;2022-07-29T03:22:13;109981.76;;;-143.34;100.00
20636;BME280;10477;43.198;27.916;2022-07-29T03:24:41;109852.09;;;-143.34;100.00
20636;BME280;10477;43.198;27.916;2022-07-29T03:27:09;109463.14;;;-143.34;100.00
20636;BME280;10477;43.198;27.916;2022-07-29T03:29:36;108814.99;;;-143.34;100.00
20636;BME280;10477;43.198;27.916;2022-07-29T03:32:05;108037.36;;;-143.34;100.00
20636;BME280;10477;43.198;27.916;2022-07-29T03:34:33;107259.91;;;-143.34;100.00
20636;BME280;10477;43.198;27.916;2022-07-29T03:37:01;106094.05;;;-143.34;100.00
20636;BME280;10477;43.198;27.916;2022-07-29T03:39:31;104410.73;;;-143.34;100.00
20636;BME280;10477;43.198;27.916;2022-07-29T03:42:01;102598.81;;;-143.34;100.00
20636;BME280;10477;43.198;27.916;2022-07-29T03:44:31;100658.53;;;-143.34;100.00
20636;BME280;10477;43.198;27.916;2022-07-29T03:47:02;99107.09;;;-143.34;100.00
20636;BME280;10477;43.198;27.916;2022-07-29T03:49:32;97297.94;;;-143.34;100.00
20636;BME280;10477;43.198;27.916;2022-07-29T03:52:00;95877.13;;;-143.34;100.00
20636;BME280;10477;43.198;27.916;2022-07-29T03:54:28;93940.59;;;-143.34;100.00
20636;BME280;10477;43.198;27.916;2022-07-29T03:56:57;90586.48;;;-143.34;100.00
20636;BME280;10477;43.198;27.916;2022-07-29T03:59:27;87493.27;;;-143.34;100.00
20636;BME280;10477;43.198;27.916;2022-07-29T04:01:57;83373.30;;;-143.34;100.00
20636;BME280;10477;43.198;27.916;2022-07-29T04:04:25;79386.77;;;-143.34;100.00
20636;BME280;10477;43.198;27.916;2022-07-29T04:06:52;76303.59;;;-143.34;100.00
20636;BME280;10477;43.198;27.916;2022-07-29T04:09:20;72710.05;;;-143.34;100.00
20636;BME280;10477;43.198;27.916;2022-07-29T04:11:48;69632.86;;;-143.34;100.00
20636;BME280;10477;43.198;27.916;2022-07-29T04:14:15;65406.26;;;-143.34;100.00
20636;BME280;10477;43.198;27.916;2022-07-29T04:16:43;57351.82;;;-143.34;100.00
20636;BME280;10477;43.198;27.916;2022-07-29T04:19:11;48162.13;;;-143.34;100.00
20636;BME280;10477;43.198;27.916;2022-07-29T04:21:39;47279.99;;;-143.34;100.00
20636;BME280;10477;43.198;27.916;2022-07-29T04:24:09;41173.30;;;-143.34;100.00
20636;BME280;10477;43.198;27.916;2022-07-29T04:26:36;27729.10;;;-143.34;100.00
20636;BME280;10477;43.198;27.916;2022-07-29T04:29:04;17365.91;;;-143.34;100.00
20636;BME280;10477;43.198;27.916;2022-07-29T04:31:32;20648.30;;;-143.34;100.00
20636;BME280;10477;43.198;27.916;2022-07-29T04:33:59;22037.98;;;-143.34;100.00
20636;BME280;10477;43.198;27.916;2022-07-29T04:36:27;24186.82;;;-143.34;100.00
20636;BME280;10477;43.198;27.916;2022-07-29T04:38:54;23301.84;;;-143.34;100.00
20636;BME280;10477;43.198;27.916;2022-07-29T04:41:22;21153.57;;;-143.34;100.00
20636;BME280;10477;43.198;27.916;2022-07-29T04:43:50;8544.85;;;-143.34;100.00
20636;BME280;10477;43.198;27.916;2022-07-29T04:46:17;-3263.55;;;-143.34;100.00
20636;BME280;10477;43.198;27.916;2022-07-29T04:48:49;-13404.81;;;-143.34;100.00
20636;BME280;10477;43.198;27.916;2022-07-29T04:51:16;-17276.47;;;-143.34;100.00
20636;BME280;10477;43.198;27.916;2022-07-29T04:53:46;-17276.47;;;-143.34;100.00
20636;BME280;10477;43.198;27.916;2022-07-29T04:56:13;-17276.47;;;-143.34;100.00
20636;BME280;10477;43.198;27.916;2022-07-29T04:58:41;-17276.47;;;-143.34;100.00
20636;BME280;10477;43.198;27.916;2022-07-29T05:01:08;-17276.47;;;-143.34;100.00
20636;BME280;10477;43.198;27.916;2022-07-29T05:03:38;-10778.62;;;-143.34;100.00
20636;BME280;10477;43.198;27.916;2022-07-29T05:06:05;-10778.62;;;-143.34;100.00
20636;BME280;10477;43.198;27.916;2022-07-29T05:08:33;6154.62;;;-143.34;100.00
20636;BME280;10477;43.198;27.916;2022-07-29T05:11:00;10810.87;;;-143.34;100.00
20636;BME280;10477;43.198;27.916;2022-07-29T05:13:28;18375.53;;;-143.34;100.00
20636;BME280;10477;43.198;27.916;2022-07-29T05:15:58;29881.61;;;-143.34;100.00
20636;BME280;10477;43.198;27.916;2022-07-29T05:18:26;31021.74;;;-143.34;100.00
20636;BME280;10477;43.198;27.916;2022-07-29T05:20:53;32035.51;;;-143.34;100.00
20636;BME280;10477;43.198;27.916;2022-07-29T05:23:21;33429.95;;;-143.34;100.00
20636;BME280;10477;43.198;27.916;2022-07-29T05:25:49;29501.66;;;-143.34;100.00
20636;BME280;10477;43.198;27.916;2022-07-29T05:28:16;22543.47;;;-143.34;100.00
20636;BME280;10477;43.198;27.916;2022-07-29T05:30:44;24945.56;;;-143.34;100.00
20636;BME280;10477;43.198;27.916;2022-07-29T05:33:12;18880.46;;;-143.34;100.00
20636;BME280;10477;43.198;27.916;2022-07-29T05:35:39;17744.48;;;-143.34;100.00
20636;BME280;10477;43.198;27.916;2022-07-29T05:38:07;20774.61;;;-143.34;100.00
20636;BME280;10477;43.198;27.916;2022-07-29T05:40:35;18880.46;;;-143.34;100.00
20636;BME280;10477;43.198;27.916;2022-07-29T05:43:06;14086.77;;;-143.34;100.00
20636;BME280;10477;43.198;27.916;2022-07-29T05:45:34;1504.95;;;-143.34;100.00
20636;BME280;10477;43.198;27.916;2022-07-29T05:48:02;-4893.28;;;-143.34;100.00
20636;BME280;10477;43.198;27.916;2022-07-29T05:50:30;-12029.45;;;-143.34;100.00
20636;BME280;10477;43.198;27.916;2022-07-29T05:52:58;-17276.47;;;-143.34;100.00
20636;BME280;10477;43.198;27.916;2022-07-29T05:55:26;-17276.47;;;-143.34;100.00
20636;BME280;10477;43.198;27.916;2022-07-29T05:57:56;-17276.47;;;-143.34;100.00
20636;BME280;10477;43.198;27.916;2022-07-29T06:00:24;-17276.47;;;-143.34;100.00
20636;BME280;10477;43.198;27.916;2022-07-29T06:02:52;-17276.47;;;-143.34;100.00
20636;BME280;10477;43.198;27.916;2022-07-29T06:05:21;-17276.47;;;-143.34;100.00
20636;BME280;10477;43.198;27.916;2022-07-29T06:07:48;-17276.47;;;-143.34;100.00
20636;BME280;10477;43.198;27.916;2022-07-29T06:10:16;-17276.47;;;-143.34;100.00
20636;BME280;10477;43.198;27.916;2022-07-29T06:12:45;-17276.47;;;-143.34;100.00
20636;BME280;10477;43.198;27.916;2022-07-29T06:15:12;-17276.47;;;-143.34;100.00
20636;BME280;10477;43.198;27.916;2022-07-29T06:17:41;-17276.47;;;-143.34;100.00
20636;BME280;10477;43.198;27.916;2022-07-29T06:20:09;-17276.47;;;-143.34;100.00
20636;BME280;10477;43.198;27.916;2022-07-29T06:22:39;-17276.47;;;-143.34;100.00
20636;BME280;10477;43.198;27.916;2022-07-29T06:25:07;-17276.47;;;-143.34;100.00
20636;BME280;10477;43.198;27.916;2022-07-29T06:27:35;-17276.47;;;-143.34;100.00
20636;BME280;10477;43.198;27.916;2022-07-29T06:30:04;-17276.47;;;-143.34;100.00
20636;BME280;10477;43.198;27.916;2022-07-29T06:32:35;-17276.47;;;-143.34;100.00
20636;BME280;10477;43.198;27.916;2022-07-29T06:35:06;-17276.47;;;-143.34;100.00
20636;BME280;10477;43.198;27.916;2022-07-29T06:37:34;-17276.47;;;-143.34;100.00
20636;BME280;10477;43.198;27.916;2022-07-29T06:40:04;-17276.47;;;-143.34;100.00
20636;BME280;10477;43.198;27.916;2022-07-29T06:42:50;-17276.47;;;-143.34;100.00
20636;BME280;10477;43.198;27.916;2022-07-29T06:45:17;-17276.47;;;-143.34;100.00
20636;BME280;10477;43.198;27.916;2022-07-29T06:47:45;-17276.47;;;-143.34;100.00
20636;BME280;10477;43.198;27.916;2022-07-29T06:50:13;-17276.47;;;-143.34;100.00
20636;BME280;10477;43.198;27.916;2022-07-29T06:52:41;-17276.47;;;-143.34;100.00
20636;BME280;10477;43.198;27.916;2022-07-29T06:55:09;-17276.47;;;-143.34;100.00
20636;BME280;10477;43.198;27.916;2022-07-29T06:57:37;-17276.47;;;-143.34;100.00
20636;BME280;10477;43.198;27.916;2022-07-29T07:00:05;-17276.47;;;-143.34;100.00
20636;BME280;10477;43.198;27.916;2022-07-29T07:02:34;-17276.47;;;-143.34;100.00
20636;BME280;10477;43.198;27.916;2022-07-29T07:05:02;-17276.47;;;-143.34;100.00
20636;BME280;10477;43.198;27.916;2022-07-29T07:07:32;-17276.47;;;-143.34;100.00
20636;BME280;10477;43.198;27.916;2022-07-29T07:10:00;-17276.47;;;-143.34;100.00
20636;BME280;10477;43.198;27.916;2022-07-29T07:12:28;-17276.47;;;-143.34;100.00
20636;BME280;10477;43.198;27.916;2022-07-29T07:14:55;-17276.47;;;-143.34;100.00
20636;BME280;10477;43.198;27.916;2022-07-29T07:17:23;-17276.47;;;-143.34;100.00
20636;BME280;10477;43.198;27.916;2022-07-29T07:19:51;-17276.47;;;-143.34;100.00
20636;BME280;10477;43.198;27.916;2022-07-29T07:22:18;-17276.47;;;-143.34;100.00
20636;BME280;10477;43.198;27.916;2022-07-29T07:24:48;-17276.47;;;-143.34;100.00
20636;BME280;10477;43.198;27.916;2022-07-29T07:27:15;-17276.47;;;-143.34;100.00
20636;BME280;10477;43.198;27.916;2022-07-29T07:29:43;-17276.47;;;-143.34;100.00
20636;BME280;10477;43.198;27.916;2022-07-29T07:32:11;-17276.47;;;-143.34;100.00
20636;BME280;10477;43.198;27.916;2022-07-29T07:34:39;-17276.47;;;-143.34;100.00
20636;BME280;10477;43.198;27.916;2022-07-29T07:37:07;-17276.47;;;-143.34;100.00
20636;BME280;10477;43.198;27.916;2022-07-29T07:39:35;-17276.47;;;-143.34;100.00
20636;BME280;10477;43.198;27.916;2022-07-29T07:42:03;-17276.47;;;-143.34;100.00
20636;BME280;10477;43.198;27.916;2022-07-29T07:44:32;-17276.47;;;-143.34;100.00
20636;BME280;10477;43.198;27.916;2022-07-29T07:47:00;-17276.47;;;-143.34;100.00
20636;BME280;10477;43.198;27.916;2022-07-29T07:49:27;-17276.47;;;-143.34;100.00
20636;BME280;10477;43.198;27.916;2022-07-29T07:51:55;-17276.47;;;-143.34;100.00
20636;BME280;10477;43.198;27.916;2022-07-29T07:54:23;-17276.47;;;-143.34;100.00
20636;BME280;10477;43.198;27.916;2022-07-29T07:56:50;-17276.47;;;-143.34;100.00
20636;BME280;10477;43.198;27.916;2022-07-29T07:59:18;-17276.47;;;-143.34;100.00
20636;BME280;10477;43.198;27.916;2022-07-29T08:01:45;-17276.47;;;-143.34;100.00
20636;BME280;10477;43.198;27.916;2022-07-29T08:04:15;-17276.47;;;-143.34;100.00
20636;BME280;10477;43.198;27.916;2022-07-29T08:06:42;-17276.47;;;-143.34;100.00
20636;BME280;10477;43.198;27.916;2022-07-29T08:09:10;-17276.47;;;-143.34;100.00
20636;BME280;10477;43.198;27.916;2022-07-29T08:11:38;-17276.47;;;-143.34;100.00
20636;BME280;10477;43.198;27.916;2022-07-29T08:14:05;-17276.47;;;-143.34;100.00
20636;BME280;10477;43.198;27.916;2022-07-29T08:16:33;-17276.47;;;-143.34;100.00
20636;BME280;10477;43.198;27.916;2022-07-29T08:19:01;-17276.47;;;-143.34;100.00
20636;BME280;10477;43.198;27.916;2022-07-29T08:21:30;-17276.47;;;-143.34;100.00
20636;BME280;10477;43.198;27.916;2022-07-29T08:23:57;-17276.47;;;-143.34;100.00
20636;BME280;10477;43.198;27.916;2022-07-29T08:26:44;-17276.47;;;-143.34;100.00
20636;BME280;10477;43.198;27.916;2022-07-29T08:29:12;-17276.47;;;-143.34;100.00
20636;BME280;10477;43.198;27.916;2022-07-29T08:31:42;-17276.47;;;-143.34;100.00
20636;BME280;10477;43.198;27.916;2022-07-29T08:34:10;-17276.47;;;-143.34;100.00
20636;BME280;10477;43.198;27.916;2022-07-29T08:36:38;-17276.47;;;-143.34;100.00
20636;BME280;10477;43.198;27.916;2022-07-29T08:39:06;-17276.47;;;-143.34;100.00
20636;BME280;10477;43.198;27.916;2022-07-29T08:41:34;-17276.47;;;-143.34;100.00
20636;BME280;10477;43.198;27.916;2022-07-29T08:44:03;-17276.47;;;-143.34;100.00
20636;BME280;10477;43.198;27.916;2022-07-29T08:46:31;-17276.47;;;-143.34;100.00
20636;BME280;10477;43.198;27.916;2022-07-29T08:48:59;-17276.47;;;-143.34;100.00
20636;BME280;10477;43.198;27.916;2022-07-29T08:51:27;-17276.47;;;-143.34;100.00
20636;BME280;10477;43.198;27.916;2022-07-29T08:53:55;-17276.47;;;-143.34;100.00
20636;BME280;10477;43.198;27.916;2022-07-29T08:56:24;-17276.47;;;-143.34;100.00
20636;BME280;10477;43.198;27.916;2022-07-29T08:58:51;-17276.47;;;-143.34;100.00
20636;BME280;10477;43.198;27.916;2022-07-29T09:01:25;-17276.47;;;-143.34;100.00
20636;BME280;10477;43.198;27.916;2022-07-29T09:03:55;-17276.47;;;-143.34;100.00
20636;BME280;10477;43.198;27.916;2022-07-29T09:06:24;-17276.47;;;-143.34;100.00
20636;BME280;10477;43.198;27.916;2022-07-29T09:08:56;-17276.47;;;-143.34;100.00
20636;BME280;10477;43.198;27.916;2022-07-29T09:11:25;-17276.47;;;-143.34;100.00
20636;BME280;10477;43.198;27.916;2022-07-29T09:13:53;-17276.47;;;-143.34;100.00
20636;BME280;10477;43.198;27.916;2022-07-29T09:16:20;-17276.47;;;-143.34;100.00
20636;BME280;10477;43.198;27.916;2022-07-29T09:18:48;-17276.47;;;-143.34;100.00
20636;BME280;10477;43.198;27.916;2022-07-29T09:21:17;-17276.47;;;-143.34;100.00
20636;BME280;10477;43.198;27.916;2022-07-29T09:24:15;-17276.47;;;-143.34;100.00
20636;BME280;10477;43.198;27.916;2022-07-29T09:26:44;-17276.47;;;-143.34;100.00
20636;BME280;10477;43.198;27.916;2022-07-29T09:29:15;-17276.47;;;-143.34;100.00
20636;BME280;10477;43.198;27.916;2022-07-29T09:31:48;-17276.47;;;-143.34;100.00
20636;BME280;10477;43.198;27.916;2022-07-29T09:34:25;-17276.47;;;-143.34;100.00
20636;BME280;10477;43.198;27.916;2022-07-29T09:36:54;-17276.47;;;-143.34;100.00
20636;BME280;10477;43.198;27.916;2022-07-29T09:39:30;-17276.47;;;-143.34;100.00
20636;BME280;10477;43.198;27.916;2022-07-29T09:42:08;-17276.47;;;-143.34;100.00
20636;BME280;10477;43.198;27.916;2022-07-29T09:44:47;-17276.47;;;-143.34;100.00
20636;BME280;10477;43.198;27.916;2022-07-29T09:47:17;-17276.47;;;-143.34;100.00
20636;BME280;10477;43.198;27.916;2022-07-29T09:49:58;-17276.47;;;-143.34;100.00
20636;BME280;10477;43.198;27.916;2022-07-29T09:52:28;-17276.47;;;-143.34;100.00
20636;BME280;10477;43.198;27.916;2022-07-29T09:55:07;-17276.47;;;-143.34;100.00
20636;BME280;10477;43.198;27.916;2022-07-29T09:57:36;-17276.47;;;-143.34;100.00
20636;BME280;10477;43.198;27.916;2022-07-29T10:00:16;-17276.47;;;-143.34;100.00
20636;BME280;10477;43.198;27.916;2022-07-29T10:02:45;-17276.47;;;-143.34;100.00
20636;BME280;10477;43.198;27.916;2022-07-29T10:05:19;-17276.47;;;-143.34;100.00
20636;BME280;10477;43.198;27.916;2022-07-29T10:07:55;-17276.47;;;-143.34;100.00
20636;BME280;10477;43.198;27.916;2022-07-29T10:10:29;-17276.47;;;-143.34;100.00
20636;BME280;10477;43.198;27.916;2022-07-29T10:13:00;-17276.47;;;-143.34;100.00
20636;BME280;10477;43.198;27.916;2022-07-29T10:15:30;-17276.47;;;-143.34;100.00
20636;BME280;10477;43.198;27.916;2022-07-29T10:17:59;-17276.47;;;-143.34;100.00
20636;BME280;10477;43.198;27.916;2022-07-29T10:20:28;-17276.47;;;-143.34;100.00
20636;BME280;10477;43.198;27.916;2022-07-29T10:22:56;-17276.47;;;-143.34;100.00
20636;BME280;10477;43.198;27.916;2022-07-29T10:25:25;-17276.47;;;-143.34;100.00
20636;BME280;10477;43.198;27.916;2022-07-29T10:27:54;-17276.47;;;-143.34;100.00
20636;BME280;10477;43.198;27.916;2022-07-29T10:30:23;-17276.47;;;-143.34;100.00
20636;BME280;10477;43.198;27.916;2022-07-29T10:38:43;-17276.47;;;-143.34;100.00
20636;BME280;10477;43.198;27.916;2022-07-29T10:44:15;-17276.47;;;-143.34;100.00
20636;BME280;10477;43.198;27.916;2022-07-29T10:46:43;-17276.47;;;-143.34;100.00
20636;BME280;10477;43.198;27.916;2022-07-29T10:49:13;-17276.47;;;-143.34;100.00
20636;BME280;10477;43.198;27.916;2022-07-29T10:51:53;-17276.47;;;-143.34;100.00
20636;BME280;10477;43.198;27.916;2022-07-29T10:54:41;-17276.47;;;-143.34;100.00
20636;BME280;10477;43.198;27.916;2022-07-29T10:57:26;-17276.47;;;-143.34;100.00
20636;BME280;10477;43.198;27.916;2022-07-29T11:02:44;-17276.47;;;-143.34;100.00
20636;BME280;10477;43.198;27.916;2022-07-29T11:05:17;-17276.47;;;-143.34;100.00
20636;BME280;10477;43.198;27.916;2022-07-29T11:10:40;-17276.47;;;-143.34;100.00
20636;BME280;10477;43.198;27.916;2022-07-29T11:13:08;-17276.47;;;-143.34;100.00
20636;BME280;10477;43.198;27.916;2022-07-29T11:15:55;-17276.47;;;-143.34;100.00
20636;BME280;10477;43.198;27.916;2022-07-29T11:18:24;-17276.47;;;-143.34;100.00
20636;BME280;10477;43.198;27.916;2022-07-29T11:20:52;-17276.47;;;-143.34;100.00
20636;BME280;10477;43.198;27.916;2022-07-29T11:28:54;-17276.47;;;-143.34;100.00
20636;BME280;10477;43.198;27.916;2022-07-29T11:31:32;-17276.47;;;-143.34;100.00
20636;BME280;10477;43.198;27.916;2022-07-29T11:34:19;-17276.47;;;-143.34;100.00
20636;BME280;10477;43.198;27.916;2022-07-29T11:39:39;-17276.47;;;-143.34;100.00
20636;BME280;10477;43.198;27.916;2022-07-29T11:45:05;-17276.47;;;-143.34;100.00
20636;BME280;10477;43.198;27.916;2022-07-29T11:47:39;-17276.47;;;-143.34;100.00
20636;BME280;10477;43.198;27.916;2022-07-29T11:50:09;-17276.47;;;-143.34;100.00
20636;BME280;10477;43.198;27.916;2022-07-29T11:52:39;-17276.47;;;-143.34;100.00
20636;BME280;10477;43.198;27.916;2022-07-29T11:55:14;-17276.47;;;-143.34;100.00
20636;BME280;10477;43.198;27.916;2022-07-29T11:57:56;-17276.47;;;-143.34;100.00
20636;BME280;10477;43.198;27.916;2022-07-29T12:00:32;-17276.47;;;-143.34;100.00
20636;BME280;10477;43.198;27.916;2022-07-29T12:03:02;-17276.47;;;-143.34;100.00
20636;BME280;10477;43.198;27.916;2022-07-29T12:05:38;-17276.47;;;-143.34;100.00
20636;BME280;10477;43.198;27.916;2022-07-29T12:08:15;-17276.47;;;-143.34;100.00
20636;BME280;10477;43.198;27.916;2022-07-29T12:10:45;-17276.47;;;-143.34;100.00
20636;BME280;10477;43.198;27.916;2022-07-29T12:13:15;-17276.47;;;-143.34;100.00
20636;BME280;10477;43.198;27.916;2022-07-29T12:15:51;-17276.47;;;-143.34;100.00
20636;BME280;10477;43.198;27.916;2022-07-29T12:18:18;-17276.47;;;-143.34;100.00
20636;BME280;10477;43.198;27.916;2022-07-29T12:20:43;-17276.47;;;-143.34;100.00
20636;BME280;10477;43.198;27.916;2022-07-29T12:23:11;-17276.47;;;-143.34;100.00
20636;BME280;10477;43.198;27.916;2022-07-29T12:25:40;-17276.47;;;-143.34;100.00
20636;BME280;10477;43.198;27.916;2022-07-29T12:28:11;-17276.47;;;-143.34;100.00
20636;BME280;10477;43.198;27.916;2022-07-29T12:30:47;-17276.47;;;-143.34;100.00
20636;BME280;10477;43.198;27.916;2022-07-29T12:33:24;-17276.47;;;-143.34;100.00
20636;BME280;10477;43.198;27.916;2022-07-29T12:35:56;-17276.47;;;-143.34;100.00
20636;BME280;10477;43.198;27.916;2022-07-29T12:38:24;-17276.47;;;-143.34;100.00
20636;BME280;10477;43.198;27.916;2022-07-29T12:40:52;-17276.47;;;-143.34;100.00
20636;BME280;10477;43.198;27.916;2022-07-29T12:43:22;-17276.47;;;-143.34;100.00
20636;BME280;10477;43.198;27.916;2022-07-29T12:45:52;-17276.47;;;-143.34;100.00
20636;BME280;10477;43.198;27.916;2022-07-29T12:48:35;-17276.47;;;-143.34;100.00
20636;BME280;10477;43.198;27.916;2022-07-29T12:51:06;-17276.47;;;-143.34;100.00
20636;BME280;10477;43.198;27.916;2022-07-29T12:53:36;-17276.47;;;-143.34;100.00
20636;BME280;10477;43.198;27.916;2022-07-29T12:56:05;-17276.47;;;-143.34;100.00
20636;BME280;10477;43.198;27.916;2022-07-29T12:58:41;-17276.47;;;-143.34;100.00
20636;BME280;10477;43.198;27.916;2022-07-29T13:01:14;-17276.47;;;-143.34;100.00
20636;BME280;10477;43.198;27.916;2022-07-29T13:04:00;-17276.47;;;-143.34;100.00
20636;BME280;10477;43.198;27.916;2022-07-29T13:06:40;-17276.47;;;-143.34;100.00